Time;durP1;ratioP1;P1;durP2;ratioP2;P2;SDS_P1;SDS_P2;PMS_P1;PMS_P2;Temp;Humidity;BMP_temperature;BMP_pressure;BME280_temperature;BME280_humidity;BME280_pressure;Samples;Min_cycle;Max_cycle;Signal;HPM_P1;HPM_P2
2021/10/31 00:00:39;;;;;;;58.75;48.20;;;11.30;99.90;;;;;;5026752;28;20037;-67
2021/10/31 00:03:06;;;;;;;56.95;48.30;;;11.20;99.90;;;;;;5032548;28;20021;-67
2021/10/31 00:05:32;;;;;;;61.42;50.67;;;11.30;99.90;;;;;;5031015;28;20041;-63
2021/10/31 00:07:59;;;;;;;59.10;51.13;;;11.20;99.90;;;;;;5032307;28;20355;-64
2021/10/31 00:10:25;;;;;;;68.38;51.25;;;11.20;99.90;;;;;;5031603;28;20053;-66
2021/10/31 00:12:52;;;;;;;64.55;52.72;;;11.20;99.90;;;;;;5031285;28;20030;-68
2021/10/31 00:15:19;;;;;;;67.32;53.90;;;11.20;99.90;;;;;;5032678;28;20041;-68
2021/10/31 00:17:46;;;;;;;61.22;51.47;;;11.20;99.90;;;;;;5032424;28;20462;-66
2021/10/31 00:20:12;;;;;;;64.20;55.10;;;11.20;99.90;;;;;;5032496;28;20486;-67
2021/10/31 00:22:40;;;;;;;62.22;50.53;;;11.20;99.90;;;;;;5030707;28;20056;-68
2021/10/31 00:25:06;;;;;;;62.83;51.13;;;11.20;99.90;;;;;;5032126;28;20382;-67
2021/10/31 00:27:33;;;;;;;63.38;52.88;;;11.20;99.90;;;;;;5031952;28;20037;-67
2021/10/31 00:29:59;;;;;;;58.78;50.40;;;11.20;99.90;;;;;;5031008;28;20029;-66
2021/10/31 00:32:26;;;;;;;66.75;53.35;;;11.10;99.90;;;;;;5031818;28;20040;-66
2021/10/31 00:34:52;;;;;;;59.15;50.15;;;11.10;99.90;;;;;;5032109;28;20044;-67
2021/10/31 00:37:19;;;;;;;58.63;48.47;;;11.10;99.90;;;;;;5031698;28;20026;-67
2021/10/31 00:39:46;;;;;;;63.20;50.08;;;11.20;99.90;;;;;;5031450;28;20041;-67
2021/10/31 00:42:12;;;;;;;62.08;50.20;;;11.20;99.90;;;;;;5032257;28;20048;-67
2021/10/31 00:44:39;;;;;;;62.25;52.03;;;11.20;99.90;;;;;;5032159;28;20032;-68
2021/10/31 00:47:07;;;;;;;60.97;49.55;;;11.20;99.90;;;;;;5031864;28;20037;-67
2021/10/31 00:49:34;;;;;;;61.25;49.40;;;11.20;99.90;;;;;;5032477;28;20517;-67
2021/10/31 00:52:01;;;;;;;63.40;50.65;;;11.10;99.90;;;;;;5030730;28;20037;-67
2021/10/31 00:54:28;;;;;;;60.53;48.95;;;11.20;99.90;;;;;;5030382;28;20492;-67
2021/10/31 00:56:55;;;;;;;61.00;51.47;;;11.10;99.90;;;;;;5032038;28;20044;-67
2021/10/31 00:59:21;;;;;;;55.42;47.17;;;11.10;99.90;;;;;;5027889;28;20397;-67
2021/10/31 01:01:49;;;;;;;59.83;48.17;;;11.10;99.90;;;;;;5012274;28;20041;-67
2021/10/31 01:04:20;;;;;;;55.35;47.47;;;11.10;99.90;;;;;;5011465;28;20041;-66
2021/10/31 01:06:52;;;;;;;58.42;48.20;;;11.20;99.90;;;;;;5013826;28;20053;-66
2021/10/31 01:09:38;;;;;;;58.25;48.30;;;11.20;99.90;;;;;;5013760;28;20050;-67
2021/10/31 01:12:26;;;;;;;56.85;47.40;;;11.10;99.90;;;;;;5012541;28;20038;-67
2021/10/31 01:15:15;;;;;;;52.20;44.80;;;11.10;99.90;;;;;;5013693;28;20029;-67
2021/10/31 01:18:22;;;;;;;53.03;43.63;;;11.10;99.90;;;;;;5013750;28;20490;-67
2021/10/31 01:21:13;;;;;;;53.22;44.83;;;11.10;99.90;;;;;;5021701;28;20054;-67
2021/10/31 01:24:22;;;;;;;52.63;42.42;;;11.10;99.90;;;;;;5012438;28;20030;-67
2021/10/31 01:27:07;;;;;;;55.45;44.03;;;11.10;99.90;;;;;;5015230;28;20042;-68
2021/10/31 01:29:52;;;;;;;51.88;40.88;;;11.10;99.90;;;;;;5013446;28;20331;-68
2021/10/31 01:32:54;;;;;;;51.70;43.00;;;11.10;99.70;;;;;;5013675;28;20038;-67
2021/10/31 01:35:41;;;;;;;53.80;43.38;;;11.10;99.40;;;;;;5013655;28;20405;-67
2021/10/31 01:38:14;;;;;;;50.67;41.50;;;11.20;99.90;;;;;;5014224;28;20037;-67
2021/10/31 01:40:47;;;;;;;55.05;44.05;;;11.10;99.90;;;;;;5011093;28;20041;-67
2021/10/31 01:43:38;;;;;;;54.17;43.88;;;11.10;99.90;;;;;;5012004;28;20351;-67
2021/10/31 01:46:05;;;;;;;50.80;43.97;;;11.10;99.90;;;;;;5013014;28;20045;-67
2021/10/31 01:48:46;;;;;;;48.92;41.47;;;11.10;99.90;;;;;;5012478;28;20497;-67
2021/10/31 01:51:22;;;;;;;53.50;42.00;;;11.10;99.90;;;;;;5012201;28;20034;-67
2021/10/31 01:53:59;;;;;;;49.88;39.88;;;11.20;99.90;;;;;;5012118;28;20021;-68
2021/10/31 01:56:28;;;;;;;50.92;40.35;;;11.20;99.90;;;;;;5012651;28;20033;-67
2021/10/31 01:59:03;;;;;;;46.42;37.38;;;11.20;99.90;;;;;;5012463;28;20352;-67
2021/10/31 02:01:31;;;;;;;48.58;40.40;;;11.20;99.90;;;;;;5024775;28;20398;-71
2021/10/31 02:04:05;;;;;;;49.47;41.63;;;11.20;99.90;;;;;;5023057;28;20028;-69
2021/10/31 02:06:37;;;;;;;48.97;41.30;;;11.10;99.90;;;;;;5024404;28;20045;-69
2021/10/31 02:09:04;;;;;;;51.72;40.75;;;11.10;99.90;;;;;;5024355;28;20029;-69
2021/10/31 02:11:34;;;;;;;54.72;43.50;;;11.10;99.90;;;;;;5022287;28;20481;-69
2021/10/31 02:14:02;;;;;;;54.40;43.88;;;11.10;99.90;;;;;;5022215;28;20041;-70
2021/10/31 02:16:29;;;;;;;52.55;42.60;;;11.10;99.90;;;;;;5022665;28;20030;-69
2021/10/31 02:19:02;;;;;;;49.20;40.92;;;11.10;99.90;;;;;;5024468;28;20030;-69
2021/10/31 02:21:35;;;;;;;50.13;41.60;;;11.10;99.90;;;;;;5026622;28;20049;-69
2021/10/31 02:24:03;;;;;;;48.30;40.03;;;11.10;99.90;;;;;;5012623;28;20041;-69
2021/10/31 02:26:30;;;;;;;47.35;38.50;;;11.00;99.90;;;;;;5013842;28;20026;-68
2021/10/31 02:28:59;;;;;;;47.55;39.63;;;11.10;99.90;;;;;;5013599;28;20038;-69
2021/10/31 02:31:26;;;;;;;51.08;41.97;;;11.10;99.90;;;;;;4979901;28;20041;-68
2021/10/31 02:33:53;;;;;;;47.80;39.92;;;11.10;99.90;;;;;;5012057;28;20378;-69
2021/10/31 02:36:19;;;;;;;52.53;40.67;;;11.00;99.90;;;;;;5013653;28;20497;-69
2021/10/31 02:38:46;;;;;;;49.35;38.78;;;11.10;99.90;;;;;;5013210;28;20375;-70
2021/10/31 02:41:13;;;;;;;46.60;37.45;;;11.00;99.90;;;;;;5013148;28;20050;-71
2021/10/31 02:43:39;;;;;;;47.05;38.67;;;11.00;99.90;;;;;;5013496;28;20038;-70
2021/10/31 02:46:07;;;;;;;47.20;38.38;;;11.00;99.90;;;;;;5013841;28;20037;-69
2021/10/31 02:48:36;;;;;;;47.28;38.25;;;11.00;99.90;;;;;;5013227;28;20379;-69
2021/10/31 02:51:28;;;;;;;49.53;39.53;;;11.00;99.90;;;;;;5013265;28;20037;-70
2021/10/31 02:54:06;;;;;;;55.03;39.95;;;11.10;99.90;;;;;;5012950;28;20041;-70
2021/10/31 02:56:49;;;;;;;49.55;38.17;;;11.10;99.90;;;;;;5013711;28;20038;-69
2021/10/31 02:59:27;;;;;;;47.60;38.15;;;11.00;99.90;;;;;;5011628;28;20053;-69
2021/10/31 03:01:57;;;;;;;45.95;36.10;;;11.10;99.90;;;;;;5012660;28;20534;-69
2021/10/31 03:04:27;;;;;;;46.43;35.20;;;11.10;99.90;;;;;;5012105;28;20046;-69
2021/10/31 03:06:56;;;;;;;47.33;36.03;;;11.00;99.90;;;;;;5013193;28;20045;-70
2021/10/31 03:09:23;;;;;;;45.15;35.83;;;11.00;99.90;;;;;;5012779;28;20060;-71
2021/10/31 03:12:05;;;;;;;40.78;33.05;;;11.00;99.90;;;;;;5011394;28;20402;-69
2021/10/31 03:14:32;;;;;;;43.17;33.90;;;11.10;99.90;;;;;;5013278;28;20034;-69
2021/10/31 03:16:58;;;;;;;41.70;32.67;;;11.10;99.90;;;;;;5011440;28;20513;-69
2021/10/31 03:19:24;;;;;;;40.42;33.00;;;11.10;99.90;;;;;;5011939;28;20033;-69
2021/10/31 03:21:51;;;;;;;39.38;31.08;;;11.00;99.90;;;;;;5012682;28;20046;-71
2021/10/31 03:24:17;;;;;;;40.25;31.85;;;11.10;99.90;;;;;;5012815;28;20022;-71
2021/10/31 03:26:44;;;;;;;38.97;31.52;;;11.00;99.90;;;;;;5012579;28;20030;-70
2021/10/31 03:29:10;;;;;;;42.40;32.90;;;11.00;99.90;;;;;;5012918;28;20033;-70
2021/10/31 03:31:37;;;;;;;38.95;31.45;;;11.00;99.90;;;;;;5012341;28;20034;-70
2021/10/31 03:34:04;;;;;;;39.60;31.67;;;11.00;99.90;;;;;;5012800;28;20026;-69
2021/10/31 03:36:30;;;;;;;38.08;30.95;;;11.00;99.90;;;;;;5011539;28;20099;-70
2021/10/31 03:38:57;;;;;;;38.95;30.60;;;11.00;99.90;;;;;;5011460;28;20037;-66
2021/10/31 03:41:23;;;;;;;37.15;30.35;;;11.00;99.90;;;;;;5012123;28;20037;-69
2021/10/31 03:43:50;;;;;;;39.92;32.13;;;11.00;99.90;;;;;;5012998;28;20462;-69
2021/10/31 03:46:17;;;;;;;37.33;30.15;;;11.00;99.90;;;;;;5011252;28;20041;-70
2021/10/31 03:48:43;;;;;;;36.95;28.95;;;11.00;99.90;;;;;;5012528;28;20041;-71
2021/10/31 03:51:10;;;;;;;37.78;30.45;;;11.00;99.90;;;;;;5010882;28;20034;-70
2021/10/31 03:53:36;;;;;;;37.67;29.40;;;11.00;99.90;;;;;;5012240;28;20037;-70
2021/10/31 03:56:02;;;;;;;33.85;28.98;;;11.00;99.90;;;;;;5012481;28;20049;-68
2021/10/31 03:58:29;;;;;;;40.17;30.58;;;11.00;99.90;;;;;;5012035;28;20041;-70
2021/10/31 04:00:55;;;;;;;38.47;29.20;;;11.00;99.90;;;;;;5012504;28;20042;-70
2021/10/31 04:03:22;;;;;;;34.08;27.75;;;11.00;99.90;;;;;;5012280;28;20037;-70
2021/10/31 04:05:48;;;;;;;33.55;26.67;;;11.00;99.90;;;;;;5012538;28;20044;-69
2021/10/31 04:08:15;;;;;;;35.63;30.65;;;11.00;99.90;;;;;;5010905;28;20022;-71
2021/10/31 04:10:41;;;;;;;36.00;28.15;;;11.00;99.90;;;;;;5011873;28;20049;-70
2021/10/31 04:13:08;;;;;;;34.78;28.90;;;11.00;99.90;;;;;;5012116;28;20483;-69
2021/10/31 04:15:34;;;;;;;37.10;29.63;;;11.00;99.90;;;;;;5010935;28;20064;-69
2021/10/31 04:18:01;;;;;;;39.17;30.40;;;11.00;99.90;;;;;;5012650;28;20033;-70
2021/10/31 04:20:27;;;;;;;36.28;30.65;;;11.00;99.90;;;;;;5012679;28;20046;-70
2021/10/31 04:22:54;;;;;;;39.20;32.25;;;11.00;99.90;;;;;;5011087;28;20030;-72
2021/10/31 04:25:20;;;;;;;41.13;32.83;;;11.00;99.90;;;;;;5012307;28;20483;-71
2021/10/31 04:27:47;;;;;;;37.75;31.70;;;11.00;99.90;;;;;;5012591;28;20030;-70
2021/10/31 04:30:13;;;;;;;42.33;33.08;;;11.00;99.90;;;;;;5010676;28;20493;-70
2021/10/31 04:32:40;;;;;;;41.90;32.08;;;11.00;99.90;;;;;;5012352;28;20026;-71
2021/10/31 04:35:07;;;;;;;39.00;32.08;;;11.00;99.90;;;;;;5010746;28;20046;-70
2021/10/31 04:37:37;;;;;;;38.40;31.83;;;10.90;99.90;;;;;;5012225;28;20030;-70
2021/10/31 04:40:06;;;;;;;39.67;31.77;;;10.90;99.90;;;;;;5013321;28;20370;-71
2021/10/31 04:42:33;;;;;;;39.22;30.90;;;11.00;99.90;;;;;;5014631;28;20406;-71
2021/10/31 04:45:00;;;;;;;40.47;32.13;;;10.90;99.90;;;;;;5015957;28;20484;-70
2021/10/31 04:47:26;;;;;;;39.42;33.13;;;11.00;99.90;;;;;;5016104;28;20037;-71
2021/10/31 04:49:53;;;;;;;37.25;32.40;;;10.90;99.90;;;;;;5015815;28;20030;-71
2021/10/31 04:52:19;;;;;;;41.53;34.33;;;10.90;99.90;;;;;;5015636;28;20053;-71
2021/10/31 04:54:46;;;;;;;41.45;33.60;;;10.90;99.90;;;;;;5015902;28;20041;-71
2021/10/31 04:57:12;;;;;;;42.25;33.88;;;10.90;99.90;;;;;;5015673;28;20109;-71
2021/10/31 04:59:39;;;;;;;42.22;35.22;;;10.90;99.90;;;;;;5015995;28;20042;-70
2021/10/31 05:02:06;;;;;;;43.35;35.78;;;10.90;99.90;;;;;;5015045;28;20088;-69
2021/10/31 05:04:32;;;;;;;42.53;33.95;;;10.90;99.90;;;;;;5016037;28;20493;-71
2021/10/31 05:06:58;;;;;;;49.55;35.75;;;10.90;99.90;;;;;;5015306;28;20393;-70
2021/10/31 05:09:25;;;;;;;42.22;33.05;;;10.90;99.90;;;;;;5015383;28;20057;-72
2021/10/31 05:11:51;;;;;;;43.65;34.80;;;10.90;99.90;;;;;;5014016;28;20034;-70
2021/10/31 05:14:18;;;;;;;42.13;35.42;;;10.90;99.90;;;;;;5014388;28;20030;-71
2021/10/31 05:16:45;;;;;;;43.95;33.40;;;10.90;99.90;;;;;;5015130;28;20105;-71
2021/10/31 05:19:12;;;;;;;44.35;34.95;;;10.90;99.90;;;;;;5015586;28;20079;-70
2021/10/31 05:21:39;;;;;;;41.90;34.58;;;10.90;99.90;;;;;;5015050;28;20034;-70
2021/10/31 05:24:06;;;;;;;42.83;33.63;;;10.90;99.90;;;;;;5015741;28;20515;-70
2021/10/31 05:26:32;;;;;;;43.25;35.00;;;10.90;99.90;;;;;;5015508;28;20057;-71
2021/10/31 05:28:58;;;;;;;43.80;33.45;;;10.90;99.90;;;;;;5015102;28;20486;-71
2021/10/31 05:31:25;;;;;;;40.55;32.78;;;10.90;99.90;;;;;;5015523;28;20054;-70
2021/10/31 05:33:52;;;;;;;40.50;34.70;;;10.90;99.90;;;;;;4997466;28;20088;-70
2021/10/31 05:36:19;;;;;;;41.15;34.33;;;10.90;99.90;;;;;;5014168;28;20046;-71
2021/10/31 05:38:46;;;;;;;40.97;32.90;;;10.90;99.90;;;;;;5016000;28;20034;-74
2021/10/31 05:41:13;;;;;;;39.83;32.80;;;10.90;99.90;;;;;;5015040;28;20069;-76
2021/10/31 05:43:40;;;;;;;38.85;31.80;;;10.90;99.90;;;;;;5015244;28;20509;-77
2021/10/31 05:46:06;;;;;;;42.78;32.80;;;10.90;99.90;;;;;;5014427;28;20042;-75
2021/10/31 05:48:33;;;;;;;38.58;32.38;;;10.90;99.90;;;;;;5014539;28;20030;-72
2021/10/31 05:50:59;;;;;;;40.47;34.25;;;10.90;99.90;;;;;;5014568;28;20061;-71
2021/10/31 05:53:26;;;;;;;41.85;32.63;;;10.90;99.90;;;;;;5014384;28;20407;-70
2021/10/31 05:55:52;;;;;;;42.55;32.22;;;10.90;99.90;;;;;;5014760;28;20037;-69
2021/10/31 05:58:19;;;;;;;39.45;30.15;;;10.80;99.90;;;;;;5013329;28;20034;-67
2021/10/31 06:00:47;;;;;;;35.40;29.73;;;10.80;99.90;;;;;;5014140;28;20029;-68
2021/10/31 06:03:13;;;;;;;38.28;30.02;;;10.80;99.90;;;;;;5014518;28;20042;-68
2021/10/31 06:05:43;;;;;;;40.38;30.75;;;10.90;99.90;;;;;;5014615;28;20041;-68
2021/10/31 06:08:14;;;;;;;36.05;28.95;;;10.90;99.90;;;;;;5014449;28;20041;-68
2021/10/31 06:10:42;;;;;;;36.53;30.55;;;10.80;99.90;;;;;;5013720;28;20069;-69
2021/10/31 06:13:08;;;;;;;36.80;28.98;;;10.80;99.90;;;;;;5013838;28;20029;-66
2021/10/31 06:15:35;;;;;;;36.85;29.33;;;10.90;99.90;;;;;;5014421;28;20036;-68
2021/10/31 06:18:02;;;;;;;37.83;28.15;;;10.80;99.90;;;;;;5013210;28;20041;-68
2021/10/31 06:20:28;;;;;;;37.70;31.55;;;10.80;99.90;;;;;;5012382;28;20048;-68
2021/10/31 06:22:55;;;;;;;43.03;32.75;;;10.80;99.90;;;;;;5014037;28;20030;-67
2021/10/31 06:25:21;;;;;;;35.80;30.30;;;10.80;99.90;;;;;;5012509;28;20501;-67
2021/10/31 06:27:48;;;;;;;40.55;31.40;;;10.80;99.90;;;;;;5013925;28;20038;-68
2021/10/31 06:30:14;;;;;;;36.60;29.20;;;10.80;99.90;;;;;;5013846;28;20101;-68
2021/10/31 06:32:41;;;;;;;38.67;29.65;;;10.80;99.90;;;;;;5012730;28;20037;-66
2021/10/31 06:35:08;;;;;;;38.63;29.88;;;10.80;99.90;;;;;;5012656;28;20029;-68
2021/10/31 06:37:35;;;;;;;41.63;29.88;;;10.80;99.90;;;;;;5013877;28;20025;-68
2021/10/31 06:40:01;;;;;;;37.05;30.25;;;10.80;99.90;;;;;;5014012;28;20042;-68
2021/10/31 06:42:29;;;;;;;37.58;31.40;;;10.80;99.90;;;;;;5013142;28;20053;-69
2021/10/31 06:44:56;;;;;;;42.97;33.10;;;10.80;99.90;;;;;;5014469;28;20041;-67
2021/10/31 06:47:23;;;;;;;44.83;33.40;;;10.80;99.90;;;;;;5013309;28;20030;-68
2021/10/31 06:49:51;;;;;;;41.28;34.30;;;10.80;99.90;;;;;;5013743;28;20040;-69
2021/10/31 06:52:18;;;;;;;39.20;31.15;;;10.80;99.90;;;;;;5013186;28;20030;-69
2021/10/31 06:54:45;;;;;;;38.80;33.15;;;10.80;99.90;;;;;;5013428;28;20398;-69
2021/10/31 06:57:11;;;;;;;39.35;32.80;;;10.80;99.90;;;;;;5013286;28;20033;-68
2021/10/31 06:59:37;;;;;;;36.30;28.98;;;10.80;99.90;;;;;;5012353;28;20034;-69
2021/10/31 07:02:04;;;;;;;37.80;31.00;;;10.80;99.90;;;;;;5012940;28;20160;-70
2021/10/31 07:04:32;;;;;;;36.47;30.02;;;10.80;99.90;;;;;;5013427;28;20049;-69
2021/10/31 07:06:58;;;;;;;36.00;28.42;;;10.80;99.90;;;;;;5011998;28;20041;-69
2021/10/31 07:09:25;;;;;;;33.17;27.23;;;10.80;99.90;;;;;;5012758;28;20049;-69
2021/10/31 07:11:51;;;;;;;35.95;27.55;;;10.80;99.90;;;;;;5011480;28;20038;-70
2021/10/31 07:14:18;;;;;;;38.95;29.52;;;10.80;99.90;;;;;;5011686;28;20046;-69
2021/10/31 07:16:44;;;;;;;36.47;28.75;;;10.80;99.90;;;;;;5013471;28;20482;-67
2021/10/31 07:19:11;;;;;;;37.75;28.35;;;10.80;99.90;;;;;;5011900;28;20478;-70
2021/10/31 07:21:38;;;;;;;36.92;28.92;;;10.80;99.90;;;;;;5013295;28;20026;-69
2021/10/31 07:24:06;;;;;;;36.17;27.52;;;10.80;99.90;;;;;;5012890;28;20497;-69
2021/10/31 07:26:33;;;;;;;34.20;28.30;;;10.80;99.90;;;;;;5013306;28;20033;-70
2021/10/31 07:29:00;;;;;;;37.15;29.15;;;10.80;99.90;;;;;;5013023;28;20038;-69
2021/10/31 07:31:29;;;;;;;36.03;28.45;;;10.80;99.90;;;;;;5013041;28;20360;-70
2021/10/31 07:33:56;;;;;;;36.72;29.38;;;10.90;99.90;;;;;;5011385;28;20041;-69
2021/10/31 07:36:23;;;;;;;30.17;25.52;;;10.90;99.90;;;;;;5012906;28;20033;-71
2021/10/31 07:38:49;;;;;;;35.72;27.35;;;10.90;99.90;;;;;;5012537;28;20516;-71
2021/10/31 07:41:16;;;;;;;35.15;27.45;;;10.90;99.90;;;;;;5012797;28;20033;-69
2021/10/31 07:43:42;;;;;;;34.65;27.95;;;10.90;99.90;;;;;;5013192;28;20053;-70
2021/10/31 07:46:10;;;;;;;34.05;28.38;;;10.90;99.90;;;;;;4995385;28;20394;-70
2021/10/31 07:48:36;;;;;;;36.75;29.60;;;10.90;99.90;;;;;;5013579;28;20053;-70
2021/10/31 07:51:03;;;;;;;37.85;28.83;;;10.90;99.90;;;;;;5012429;28;20030;-69
2021/10/31 07:53:30;;;;;;;40.83;30.85;;;10.90;99.90;;;;;;5012552;28;20034;-72
2021/10/31 07:55:57;;;;;;;42.40;34.17;;;10.90;99.90;;;;;;5012489;28;20471;-74
2021/10/31 07:58:25;;;;;;;41.20;32.70;;;10.90;99.90;;;;;;5011698;28;20041;-72
2021/10/31 08:00:52;;;;;;;45.55;35.00;;;10.90;99.90;;;;;;4994805;28;20471;-71
2021/10/31 08:03:19;;;;;;;39.67;33.72;;;10.90;99.90;;;;;;5012365;28;20034;-72
2021/10/31 08:05:46;;;;;;;35.53;30.02;;;11.00;99.90;;;;;;5012286;28;20034;-70
2021/10/31 08:08:13;;;;;;;34.42;27.98;;;10.90;99.90;;;;;;5012780;28;20033;-71
2021/10/31 08:10:39;;;;;;;35.17;28.67;;;10.90;99.90;;;;;;5012114;28;20056;-72
2021/10/31 08:13:06;;;;;;;36.17;28.15;;;10.90;99.90;;;;;;5011312;28;20036;-71
2021/10/31 08:15:33;;;;;;;34.22;27.35;;;11.00;99.90;;;;;;5014826;28;20030;-70
2021/10/31 08:17:59;;;;;;;35.53;27.33;;;11.00;99.90;;;;;;5016576;28;20053;-71
2021/10/31 08:20:26;;;;;;;33.88;27.33;;;11.00;99.90;;;;;;5015336;28;20050;-71
2021/10/31 08:22:52;;;;;;;36.10;28.45;;;11.00;99.90;;;;;;5016205;28;20030;-71
2021/10/31 08:25:19;;;;;;;37.95;30.13;;;11.00;99.90;;;;;;5015075;28;20034;-71
2021/10/31 08:27:46;;;;;;;34.13;28.60;;;11.10;99.90;;;;;;5016580;28;20030;-72
2021/10/31 08:30:12;;;;;;;32.90;27.65;;;11.10;99.90;;;;;;5016437;28;20045;-71
2021/10/31 08:32:47;;;;;;;39.78;29.10;;;11.10;99.90;;;;;;5015862;28;20500;-71
2021/10/31 08:35:14;;;;;;;34.90;28.23;;;11.10;99.90;;;;;;5016120;28;20037;-69
2021/10/31 08:37:41;;;;;;;33.60;26.00;;;11.10;99.90;;;;;;5015577;28;20030;-71
2021/10/31 08:40:08;;;;;;;34.78;29.90;;;11.20;99.90;;;;;;5014570;28;20070;-71
2021/10/31 08:42:34;;;;;;;33.40;28.77;;;11.20;99.90;;;;;;5015462;28;20052;-71
2021/10/31 08:45:01;;;;;;;35.97;30.42;;;11.20;99.90;;;;;;5014720;28;20033;-71
2021/10/31 08:47:27;;;;;;;37.85;30.95;;;11.20;99.90;;;;;;5015161;28;20038;-71
2021/10/31 08:49:54;;;;;;;38.22;30.92;;;11.20;99.90;;;;;;5016377;28;20030;-70
2021/10/31 08:52:21;;;;;;;39.30;29.10;;;11.20;99.90;;;;;;5015599;28;20033;-69
2021/10/31 08:54:47;;;;;;;35.75;29.83;;;11.20;99.90;;;;;;5015930;28;20034;-71
2021/10/31 08:57:14;;;;;;;32.70;27.90;;;11.20;99.90;;;;;;5016741;28;20379;-71
2021/10/31 08:59:40;;;;;;;37.85;30.85;;;11.20;99.90;;;;;;5015881;28;20394;-71
2021/10/31 09:02:07;;;;;;;36.67;29.40;;;11.20;99.90;;;;;;5014272;28;20038;-71
2021/10/31 09:04:34;;;;;;;37.58;30.08;;;11.30;99.90;;;;;;5015322;28;20041;-71
2021/10/31 09:07:01;;;;;;;39.50;29.48;;;11.30;99.90;;;;;;5015670;28;20038;-70
2021/10/31 09:09:27;;;;;;;35.85;27.55;;;11.30;99.90;;;;;;5015443;28;20056;-70
2021/10/31 09:11:54;;;;;;;35.92;29.60;;;11.30;99.90;;;;;;5014065;28;20041;-71
2021/10/31 09:14:21;;;;;;;34.50;29.48;;;11.30;99.90;;;;;;5013825;28;20378;-70
2021/10/31 09:16:48;;;;;;;37.70;29.15;;;11.30;99.90;;;;;;5014047;28;20053;-69
2021/10/31 09:19:17;;;;;;;34.63;28.00;;;11.30;99.90;;;;;;5014201;28;20463;-69
2021/10/31 09:21:44;;;;;;;35.80;28.23;;;11.40;99.90;;;;;;5012724;28;20038;-70
2021/10/31 09:24:11;;;;;;;34.45;28.35;;;11.40;99.90;;;;;;5013841;28;20042;-69
2021/10/31 09:26:37;;;;;;;35.72;28.60;;;11.40;99.90;;;;;;5013735;28;20037;-69
2021/10/31 09:29:05;;;;;;;34.65;28.48;;;11.40;99.90;;;;;;5013709;28;20026;-69
2021/10/31 09:31:32;;;;;;;33.13;28.92;;;11.50;99.90;;;;;;5014119;28;20386;-70
2021/10/31 09:33:59;;;;;;;33.53;27.52;;;11.50;99.90;;;;;;5014045;28;20025;-70
2021/10/31 09:36:26;;;;;;;31.40;27.48;;;11.40;99.90;;;;;;5012474;28;20038;-67
2021/10/31 09:38:54;;;;;;;31.35;27.70;;;11.40;99.90;;;;;;5013779;28;20022;-67
2021/10/31 09:41:22;;;;;;;36.58;28.52;;;11.40;99.90;;;;;;5013291;28;20387;-68
2021/10/31 09:43:53;;;;;;;30.63;26.98;;;11.50;99.90;;;;;;5013832;28;20034;-68
2021/10/31 09:46:20;;;;;;;31.08;27.58;;;11.50;99.90;;;;;;5013879;28;20042;-70
2021/10/31 09:48:46;;;;;;;34.28;28.23;;;11.50;99.90;;;;;;5024421;28;20038;-69
2021/10/31 09:51:13;;;;;;;34.90;27.92;;;11.50;99.90;;;;;;5021967;28;20037;-71
2021/10/31 09:53:41;;;;;;;36.47;28.92;;;11.50;99.90;;;;;;5024750;28;20470;-68
2021/10/31 09:56:10;;;;;;;34.20;27.83;;;11.50;99.90;;;;;;5033006;28;20521;-68
2021/10/31 09:58:39;;;;;;;35.97;28.08;;;11.50;99.90;;;;;;5031773;28;20040;-68
2021/10/31 10:01:23;;;;;;;34.60;28.33;;;11.50;99.90;;;;;;5033125;28;20025;-68
2021/10/31 10:03:54;;;;;;;32.65;28.02;;;11.50;99.90;;;;;;5031637;28;20082;-67
2021/10/31 10:06:25;;;;;;;33.70;29.35;;;11.50;99.90;;;;;;5032927;28;20044;-67
2021/10/31 10:11:38;;;;;;;33.40;28.05;;;11.60;99.90;;;;;;5069280;28;20379;-70
2021/10/31 10:14:10;;;;;;;37.38;30.65;;;11.50;99.90;;;;;;5068858;28;20052;-67
2021/10/31 10:16:37;;;;;;;37.97;32.40;;;11.60;99.90;;;;;;5068271;28;20044;-66
2021/10/31 10:19:19;;;;;;;36.85;30.48;;;11.60;99.90;;;;;;5065743;28;20033;-64
2021/10/31 10:21:53;;;;;;;38.30;30.05;;;11.50;99.90;;;;;;5064800;28;20028;-68
2021/10/31 10:24:22;;;;;;;36.38;31.30;;;11.50;99.90;;;;;;5065773;28;20051;-61
2021/10/31 10:26:50;;;;;;;35.20;29.60;;;11.50;99.90;;;;;;5068187;28;20059;-59
2021/10/31 10:29:23;;;;;;;38.00;30.00;;;11.60;99.90;;;;;;5068400;28;20044;-59
2021/10/31 10:32:03;;;;;;;36.90;30.80;;;11.60;99.90;;;;;;5069145;28;20048;-61
2021/10/31 10:34:44;;;;;;;37.58;31.25;;;11.60;99.90;;;;;;5069702;28;20052;-60
2021/10/31 10:37:25;;;;;;;36.22;30.10;;;11.60;99.90;;;;;;5068996;28;20405;-66
2021/10/31 10:39:54;;;;;;;36.13;31.15;;;11.60;99.90;;;;;;5067204;28;20029;-66
2021/10/31 10:42:26;;;;;;;35.40;30.05;;;11.60;99.90;;;;;;5067546;28;20033;-66
2021/10/31 10:44:58;;;;;;;40.50;33.33;;;11.60;99.90;;;;;;5066851;28;20369;-67
2021/10/31 10:47:25;;;;;;;37.03;31.38;;;11.60;99.90;;;;;;5068657;28;20060;-67
2021/10/31 10:49:53;;;;;;;38.70;31.50;;;11.60;99.90;;;;;;5067000;28;20504;-67
2021/10/31 10:52:25;;;;;;;37.88;31.08;;;11.60;99.90;;;;;;5068158;28;20055;-66
2021/10/31 10:55:05;;;;;;;37.08;30.63;;;11.60;99.90;;;;;;5052669;28;20485;-68
2021/10/31 10:57:36;;;;;;;34.95;31.10;;;11.70;99.90;;;;;;5048998;28;20030;-67
2021/10/31 11:00:09;;;;;;;37.40;29.30;;;11.70;99.90;;;;;;5049060;28;20033;-67
2021/10/31 11:02:36;;;;;;;36.78;29.35;;;11.70;99.90;;;;;;5049104;28;20492;-66
2021/10/31 11:05:08;;;;;;;37.90;30.33;;;11.70;99.90;;;;;;5048609;28;20377;-66
2021/10/31 11:07:48;;;;;;;34.95;30.55;;;11.70;99.90;;;;;;5054141;28;20029;-67
2021/10/31 11:10:23;;;;;;;38.60;29.92;;;11.70;99.90;;;;;;5057408;28;20052;-66
2021/10/31 11:12:53;;;;;;;36.15;29.27;;;11.70;99.90;;;;;;5057588;28;20060;-67
2021/10/31 11:15:23;;;;;;;39.13;30.58;;;11.70;99.90;;;;;;5048383;28;20036;-67
2021/10/31 11:17:53;;;;;;;25.60;22.05;;;11.60;99.90;;;;;;5031448;28;20479;-66
2021/10/31 11:20:22;;;;;;;37.70;32.17;;;11.60;99.90;;;;;;5051795;28;20927;-66
2021/10/31 11:22:53;;;;;;;38.20;30.77;;;11.70;99.90;;;;;;5042028;28;20380;-64
2021/10/31 11:25:22;;;;;;;40.47;32.70;;;11.70;99.90;;;;;;5041046;28;20048;-64
2021/10/31 11:27:51;;;;;;;35.63;30.13;;;11.60;99.90;;;;;;5041197;28;20034;-63
2021/10/31 11:30:19;;;;;;;36.05;29.88;;;11.70;99.90;;;;;;5038897;28;20037;-63
2021/10/31 11:32:47;;;;;;;36.42;29.48;;;11.70;99.90;;;;;;5041780;28;20037;-61
2021/10/31 11:35:16;;;;;;;35.60;30.38;;;11.80;99.90;;;;;;5047712;28;20040;-63
2021/10/31 11:37:47;;;;;;;37.53;31.33;;;11.80;99.90;;;;;;5038073;28;20040;-63
2021/10/31 11:40:17;;;;;;;38.20;32.00;;;11.80;99.90;;;;;;5044004;28;20503;-64
2021/10/31 11:42:45;;;;;;;36.22;29.52;;;11.90;99.90;;;;;;5037587;28;20037;-64
2021/10/31 11:45:22;;;;;;;38.58;31.83;;;11.90;99.90;;;;;;5043995;28;20036;-63
2021/10/31 11:48:13;;;;;;;40.20;32.08;;;11.90;99.90;;;;;;5042095;28;20025;-63
2021/10/31 11:51:02;;;;;;;35.75;29.98;;;11.80;99.90;;;;;;5041093;28;20049;-63
2021/10/31 11:53:41;;;;;;;33.75;28.27;;;11.80;99.90;;;;;;5039120;28;20044;-63
2021/10/31 11:56:25;;;;;;;34.42;29.65;;;11.80;99.90;;;;;;5041022;28;20431;-63
2021/10/31 11:58:55;;;;;;;33.40;28.50;;;11.80;99.90;;;;;;5041318;28;20049;-63
2021/10/31 12:01:37;;;;;;;34.72;30.83;;;11.80;99.90;;;;;;5036841;28;20042;-63
2021/10/31 12:04:08;;;;;;;35.83;30.20;;;11.80;99.90;;;;;;5032907;28;20053;-63
2021/10/31 12:06:41;;;;;;;;;;;11.80;99.90;;;;;;5034180;28;20041;-63
2021/10/31 12:09:29;;;;;;;33.22;28.27;;;11.80;99.90;;;;;;5042888;28;20369;-62
2021/10/31 12:11:55;;;;;;;36.92;30.95;;;11.90;99.90;;;;;;5036527;28;20409;-62
2021/10/31 12:14:40;;;;;;;41.00;32.10;;;11.90;99.90;;;;;;5046091;28;20045;-63
2021/10/31 12:17:07;;;;;;;35.17;29.25;;;11.90;99.90;;;;;;5037323;28;20393;-63
2021/10/31 12:19:40;;;;;;;33.65;29.00;;;11.90;99.90;;;;;;5042421;28;20044;-64
2021/10/31 12:22:13;;;;;;;32.35;28.40;;;11.90;99.90;;;;;;5036482;28;20031;-64
2021/10/31 12:24:48;;;;;;;29.95;25.67;;;11.90;99.90;;;;;;5044147;28;20048;-64
2021/10/31 12:27:18;;;;;;;28.92;24.70;;;11.80;99.50;;;;;;5041412;28;20044;-62
2021/10/31 12:29:52;;;;;;;28.33;23.55;;;11.80;98.70;;;;;;5043619;28;20358;-64
2021/10/31 12:32:20;;;;;;;28.35;24.52;;;11.80;99.00;;;;;;5058930;28;20063;-63
2021/10/31 12:34:52;;;;;;;28.17;23.25;;;11.80;99.30;;;;;;5040697;28;20417;-63
2021/10/31 12:37:22;;;;;;;29.73;24.40;;;11.80;99.80;;;;;;5044830;28;20033;-62
2021/10/31 12:40:08;;;;;;;33.60;25.00;;;11.80;99.90;;;;;;5036183;28;20033;-62
2021/10/31 12:42:46;;;;;;;25.65;22.85;;;11.80;99.90;;;;;;5043825;28;20036;-63